Time;durP1;ratioP1;P1;durP2;ratioP2;P2;SDS_P1;SDS_P2;PMS_P1;PMS_P2;Temp;Humidity;BMP_temperature;BMP_pressure;BME280_temperature;BME280_humidity;BME280_pressure;Samples;Min_cycle;Max_cycle;Signal;HPM_P1;HPM_P2
2023/04/14 00:00:35;;;;;;;0.40;0.40;;;;;;;9.10;73.56;96213.88;4965809;28;20524;-60
2023/04/14 00:03:02;;;;;;;0.50;0.50;;;;;;;8.96;73.57;96219.25;4965767;28;20121;-60
2023/04/14 00:05:31;;;;;;;0.40;0.40;;;;;;;9.16;72.04;96223.38;4965448;28;20429;-60
2023/04/14 00:07:58;;;;;;;0.45;0.45;;;;;;;9.13;71.42;96229.66;4965732;28;20089;-60
2023/04/14 00:10:25;;;;;;;0.40;0.40;;;;;;;8.73;72.22;96200.09;4970453;28;20089;-60
2023/04/14 00:12:52;;;;;;;0.40;0.40;;;;;;;8.91;73.70;96230.63;4983284;28;20054;-61
2023/04/14 00:15:18;;;;;;;0.40;0.40;;;;;;;8.88;74.21;96228.63;4985080;28;20512;-59
2023/04/14 00:17:45;;;;;;;0.40;0.40;;;;;;;8.41;74.68;96167.81;4984953;28;20050;-60
2023/04/14 00:20:12;;;;;;;0.40;0.40;;;;;;;8.76;74.54;96231.66;4983584;28;20057;-61
2023/04/14 00:22:38;;;;;;;0.40;0.40;;;;;;;8.79;75.25;96230.88;4983318;28;20124;-60
2023/04/14 00:25:05;;;;;;;0.40;0.40;;;;;;;8.88;75.09;96229.41;4984786;28;20058;-60
2023/04/14 00:27:32;;;;;;;0.40;0.40;;;;;;;8.76;74.27;96209.56;4984507;28;20058;-59
2023/04/14 00:29:59;;;;;;;0.40;0.40;;;;;;;8.72;73.44;96203.22;4985029;28;20050;-59
2023/04/14 00:32:25;;;;;;;0.40;0.40;;;;;;;8.23;73.56;96141.97;4985226;28;20054;-60
2023/04/14 00:34:52;;;;;;;0.40;0.40;;;;;;;8.70;73.57;96216.59;4984750;28;20085;-60
2023/04/14 00:37:19;;;;;;;0.40;0.40;;;;;;;8.80;73.27;96232.50;4979723;28;20077;-60
2023/04/14 00:39:45;;;;;;;0.40;0.40;;;;;;;8.78;73.90;96245.88;4983223;28;20046;-61
2023/04/14 00:42:12;;;;;;;0.40;0.40;;;;;;;8.60;74.43;96214.53;4983327;28;20046;-59
2023/04/14 00:44:39;;;;;;;0.40;0.40;;;;;;;8.63;74.31;96222.06;4984646;28;20097;-59
2023/04/14 00:47:06;;;;;;;0.40;0.40;;;;;;;8.43;74.76;96195.78;4983274;28;20078;-60
2023/04/14 00:49:32;;;;;;;0.35;0.35;;;;;;;8.07;74.79;96193.75;4983041;28;20055;-60
2023/04/14 00:51:59;;;;;;;0.40;0.40;;;;;;;8.46;74.81;96192.28;4983133;28;20046;-62
2023/04/14 00:54:26;;;;;;;0.40;0.40;;;;;;;8.87;74.75;96243.59;4984448;28;20074;-59
2023/04/14 00:56:56;;;;;;;0.40;0.40;;;;;;;8.85;74.26;96245.97;4982785;28;20124;-59
2023/04/14 00:59:23;;;;;;;0.40;0.40;;;;;;;8.38;75.16;96180.38;4984574;28;20116;-62
2023/04/14 01:01:49;;;;;;;0.40;0.40;;;;;;;8.87;75.81;96249.13;4973463;28;20054;-60
2023/04/14 01:04:17;;;;;;;0.40;0.40;;;;;;;8.80;74.64;96221.44;4988562;28;20190;-60
2023/04/14 01:06:44;;;;;;;0.40;0.40;;;;;;;9.02;73.97;96250.88;4988615;28;20067;-60
2023/04/14 01:09:11;;;;;;;0.38;0.38;;;;;;;8.99;73.39;96252.41;4988597;28;20050;-60
2023/04/14 01:12:05;;;;;;;0.40;0.40;;;;;;;8.93;74.17;96247.63;4987763;28;20051;-60
2023/04/14 01:14:58;;;;;;;0.35;0.35;;;;;;;8.93;74.71;96236.59;4988050;28;20046;-60
2023/04/14 01:17:53;;;;;;;0.40;0.40;;;;;;;8.89;75.10;96246.78;4988279;28;20141;-60
2023/04/14 01:20:44;;;;;;;0.40;0.40;;;;;;;8.81;75.79;96237.63;4988348;28;20506;-61
2023/04/14 01:23:38;;;;;;;0.40;0.40;;;;;;;8.90;74.92;96237.31;4988234;28;20117;-61
2023/04/14 01:26:29;;;;;;;0.40;0.40;;;;;;;8.73;75.99;96238.75;4987606;28;20148;-60
2023/04/14 01:29:02;;;;;;;0.40;0.40;;;;;;;8.67;76.70;96239.44;4986807;28;20124;-60
2023/04/14 01:31:32;;;;;;;0.40;0.40;;;;;;;8.68;76.59;96241.81;4967117;28;20057;-60
2023/04/14 01:34:30;;;;;;;0.40;0.40;;;;;;;8.76;76.20;96242.69;4968557;28;20086;-60
2023/04/14 01:37:20;;;;;;;0.35;0.35;;;;;;;8.83;75.64;96242.78;4968523;28;20058;-63
2023/04/14 01:39:52;;;;;;;0.40;0.40;;;;;;;8.82;75.13;96235.69;4984782;28;20054;-62
2023/04/14 01:42:24;;;;;;;0.40;0.40;;;;;;;8.81;75.35;96239.59;4987891;28;20046;-60
2023/04/14 01:44:55;;;;;;;0.40;0.40;;;;;;;8.95;75.84;96272.88;5002669;28;20454;-60
2023/04/14 01:47:25;;;;;;;0.40;0.40;;;;;;;8.78;75.75;96243.13;4987522;28;20321;-59
2023/04/14 01:49:54;;;;;;;0.50;0.50;;;;;;;8.75;75.81;96241.13;4987996;28;20081;-60
2023/04/14 01:52:21;;;;;;;0.40;0.40;;;;;;;8.26;76.32;96174.31;4987702;28;20142;-59
2023/04/14 01:54:51;;;;;;;0.40;0.40;;;;;;;8.59;77.38;96232.25;5002143;28;20576;-61
2023/04/14 01:57:21;;;;;;;0.40;0.40;;;;;;;8.57;77.65;96229.06;5002419;28;20471;-61
2023/04/14 01:59:51;;;;;;;0.40;0.40;;;;;;;8.41;77.32;96206.44;5002509;28;20057;-60
2023/04/14 02:02:19;;;;;;;0.40;0.40;;;;;;;8.31;78.54;96226.41;4987630;28;20058;-61
2023/04/14 02:04:48;;;;;;;0.40;0.40;;;;;;;8.35;78.99;96239.06;4987269;28;20541;-60
2023/04/14 02:07:18;;;;;;;0.40;0.40;;;;;;;8.33;77.90;96232.34;4987558;28;20174;-60
2023/04/14 02:09:47;;;;;;;0.32;0.32;;;;;;;8.11;78.67;96191.84;4987309;28;20054;-61
2023/04/14 02:12:13;;;;;;;0.40;0.40;;;;;;;8.09;78.90;96191.41;5000377;28;20058;-60
2023/04/14 02:14:42;;;;;;;0.40;0.40;;;;;;;8.22;79.31;96228.63;4986990;28;20050;-60
2023/04/14 02:17:10;;;;;;;0.30;0.30;;;;;;;8.24;79.75;96215.28;4987585;28;20086;-60
2023/04/14 02:19:38;;;;;;;0.40;0.40;;;;;;;8.17;78.64;96198.63;4986065;28;20104;-60
2023/04/14 02:22:05;;;;;;;0.40;0.40;;;;;;;8.45;77.72;96204.50;4987232;28;20132;-60
2023/04/14 02:24:31;;;;;;;0.32;0.32;;;;;;;8.31;77.58;96190.53;4986811;28;20215;-60
2023/04/14 02:27:07;;;;;;;0.30;0.30;;;;;;;8.37;78.60;96241.44;4985332;28;20046;-60
2023/04/14 02:29:35;;;;;;;0.30;0.30;;;;;;;8.22;78.14;96217.59;4986231;28;20061;-60
2023/04/14 02:32:04;;;;;;;0.40;0.40;;;;;;;8.24;77.06;96198.72;4985837;28;20112;-59
2023/04/14 02:34:36;;;;;;;0.30;0.30;;;;;;;8.16;77.89;96219.06;4985705;28;20058;-60
2023/04/14 02:37:09;;;;;;;0.40;0.40;;;;;;;8.07;78.06;96216.63;4984212;28;20133;-59
2023/04/14 02:39:47;;;;;;;0.40;0.40;;;;;;;7.59;79.63;96174.22;4984311;28;20073;-60
2023/04/14 02:42:15;;;;;;;0.40;0.40;;;;;;;7.85;79.47;96220.25;4986946;28;20073;-60
2023/04/14 02:44:50;;;;;;;0.40;0.40;;;;;;;7.42;80.11;96182.22;4986143;28;20113;-60
2023/04/14 02:47:28;;;;;;;0.40;0.40;;;;;;;7.69;80.24;96220.44;4986679;28;20046;-60
2023/04/14 02:49:55;;;;;;;0.40;0.40;;;;;;;7.26;80.15;96143.81;4986440;28;20054;-61
2023/04/14 02:52:24;;;;;;;0.30;0.30;;;;;;;7.76;80.62;96228.00;4985409;28;20046;-60
2023/04/14 02:54:52;;;;;;;0.40;0.40;;;;;;;7.67;81.76;96235.72;4986319;28;20513;-60
2023/04/14 02:57:20;;;;;;;0.38;0.38;;;;;;;6.93;81.89;96096.91;4986059;28;20093;-60
2023/04/14 02:59:47;;;;;;;0.40;0.40;;;;;;;7.79;81.66;96229.22;4984656;28;20085;-60
2023/04/14 03:02:16;;;;;;;0.40;0.40;;;;;;;7.87;81.65;96233.66;4985177;28;20058;-62
2023/04/14 03:04:43;;;;;;;0.40;0.40;;;;;;;7.77;81.17;96232.34;4984657;28;20150;-59
2023/04/14 03:07:15;;;;;;;0.40;0.40;;;;;;;7.15;81.93;96148.38;4986393;28;20073;-59
2023/04/14 03:09:41;;;;;;;0.40;0.40;;;;;;;7.69;81.75;96239.72;4986095;28;20120;-61
2023/04/14 03:12:12;;;;;;;0.30;0.30;;;;;;;7.50;82.52;96214.22;4985680;28;20081;-59
2023/04/14 03:14:40;;;;;;;0.40;0.40;;;;;;;7.32;81.93;96186.41;4984620;28;20064;-62
2023/04/14 03:17:08;;;;;;;0.40;0.40;;;;;;;7.57;83.00;96239.91;4984570;28;20077;-61
2023/04/14 03:19:39;;;;;;;0.40;0.40;;;;;;;7.66;82.83;96234.97;4985546;28;20508;-59
2023/04/14 03:22:11;;;;;;;0.30;0.30;;;;;;;7.73;82.15;96243.31;4986082;28;20144;-59
2023/04/14 03:24:39;;;;;;;0.30;0.30;;;;;;;7.68;83.01;96243.63;4985004;28;20521;-60
2023/04/14 03:27:09;;;;;;;0.40;0.40;;;;;;;7.44;83.51;96213.75;4985805;28;20058;-59
2023/04/14 03:29:43;;;;;;;0.40;0.40;;;;;;;7.06;83.66;96172.63;4985666;28;20498;-59
2023/04/14 03:32:12;;;;;;;0.30;0.30;;;;;;;7.46;84.25;96236.19;4986059;28;20050;-60
2023/04/14 03:34:47;;;;;;;0.30;0.30;;;;;;;7.04;83.91;96157.63;4984049;28;20485;-59
2023/04/14 03:37:17;;;;;;;0.30;0.30;;;;;;;7.69;83.28;96233.41;4984556;28;20529;-59
2023/04/14 03:39:46;;;;;;;0.40;0.40;;;;;;;7.65;83.40;96235.31;4984243;28;20440;-60
2023/04/14 03:42:13;;;;;;;0.30;0.30;;;;;;;7.59;83.99;96229.31;4985850;28;20565;-60
2023/04/14 03:44:45;;;;;;;0.30;0.30;;;;;;;7.60;84.05;96213.59;4985431;28;20590;-60
2023/04/14 03:47:13;;;;;;;0.30;0.30;;;;;;;7.69;83.27;96231.47;4984166;28;20054;-61
2023/04/14 03:49:45;;;;;;;0.40;0.40;;;;;;;7.67;83.55;96242.06;4985857;28;20081;-59
2023/04/14 03:52:14;;;;;;;0.30;0.30;;;;;;;7.77;82.96;96226.03;4985447;28;20584;-59
2023/04/14 03:54:44;;;;;;;0.35;0.35;;;;;;;7.71;82.85;96251.16;4983740;28;20054;-59
2023/04/14 03:57:13;;;;;;;0.40;0.40;;;;;;;7.52;83.38;96251.25;4985151;28;20058;-61
2023/04/14 03:59:40;;;;;;;0.38;0.38;;;;;;;7.52;82.24;96245.75;4984756;28;20132;-60
2023/04/14 04:02:09;;;;;;;0.30;0.30;;;;;;;6.59;82.78;96103.41;4967733;28;20544;-62
2023/04/14 04:04:36;;;;;;;0.30;0.30;;;;;;;7.43;82.85;96245.22;4965032;28;20486;-60
2023/04/14 04:07:09;;;;;;;0.30;0.30;;;;;;;7.03;82.59;96195.38;4965251;28;20426;-61
2023/04/14 04:09:37;;;;;;;0.40;0.40;;;;;;;7.06;82.08;96183.63;4965542;28;20634;-61
2023/04/14 04:12:06;;;;;;;0.40;0.40;;;;;;;7.19;82.90;96215.28;4977503;28;20054;-60
2023/04/14 04:14:35;;;;;;;0.40;0.40;;;;;;;7.15;82.54;96197.94;4984625;28;20083;-62
2023/04/14 04:17:07;;;;;;;0.40;0.40;;;;;;;7.22;81.08;96203.53;4984888;28;20054;-60
2023/04/14 04:19:35;;;;;;;0.32;0.32;;;;;;;6.62;81.17;96135.72;4983565;28;20132;-60
2023/04/14 04:22:03;;;;;;;0.30;0.30;;;;;;;7.31;81.54;96245.41;4984717;28;20114;-60
2023/04/14 04:24:36;;;;;;;0.30;0.30;;;;;;;6.72;82.43;96153.56;5000049;28;20058;-59
2023/04/14 04:27:04;;;;;;;;;;;;;;;7.28;83.67;96251.66;4983843;28;20050;-61
2023/04/14 04:29:40;;;;;;;0.30;0.30;;;;;;;7.19;85.17;96259.34;4984728;28;20045;-60
2023/04/14 04:32:06;;;;;;;0.30;0.30;;;;;;;7.25;84.44;96257.09;4999809;28;20061;-61
2023/04/14 04:34:34;;;;;;;0.40;0.40;;;;;;;7.47;83.14;96270.06;4999020;28;20055;-60
2023/04/14 04:37:01;;;;;;;0.30;0.30;;;;;;;7.59;83.91;96267.09;4984878;28;20082;-61
2023/04/14 04:39:31;;;;;;;0.30;0.30;;;;;;;7.68;84.08;96271.19;4984579;28;20058;-60
2023/04/14 04:42:05;;;;;;;0.30;0.30;;;;;;;7.58;82.93;96230.50;4984318;28;20050;-60
2023/04/14 04:44:33;;;;;;;0.30;0.30;;;;;;;7.95;82.01;96268.44;4999442;28;20086;-59
2023/04/14 04:47:01;;;;;;;0.30;0.30;;;;;;;8.16;82.13;96272.28;4983338;28;20504;-59
2023/04/14 04:49:27;;;;;;;0.30;0.30;;;;;;;8.38;80.23;96271.44;4984047;28;20513;-59
2023/04/14 04:51:55;;;;;;;0.32;0.32;;;;;;;8.04;81.75;96227.59;4984612;28;20054;-61
2023/04/14 04:54:22;;;;;;;0.40;0.40;;;;;;;8.61;80.56;96263.84;4984618;28;20394;-60
2023/04/14 04:56:49;;;;;;;0.40;0.40;;;;;;;8.83;79.63;96240.03;4983339;28;20054;-61
2023/04/14 04:59:16;;;;;;;0.35;0.35;;;;;;;9.24;77.99;96258.19;4999041;28;20065;-61
2023/04/14 05:01:42;;;;;;;0.40;0.40;;;;;;;9.12;76.18;96205.97;4984394;28;20952;-60
2023/04/14 05:04:10;;;;;;;0.40;0.40;;;;;;;9.88;75.70;96245.69;4999151;28;20108;-61
2023/04/14 05:06:37;;;;;;;0.40;0.40;;;;;;;9.62;74.31;96163.75;4999089;28;20057;-62
2023/04/14 05:09:04;;;;;;;0.40;0.40;;;;;;;10.31;71.97;96253.88;4984480;28;20093;-61
2023/04/14 05:11:32;;;;;;;0.40;0.40;;;;;;;10.42;71.59;96251.94;4984038;28;20477;-60
2023/04/14 05:13:59;;;;;;;0.40;0.40;;;;;;;10.61;70.48;96265.47;4983172;28;20054;-62
2023/04/14 05:16:27;;;;;;;0.50;0.50;;;;;;;10.73;70.11;96238.63;4984459;28;20058;-61
2023/04/14 05:18:54;;;;;;;0.50;0.50;;;;;;;11.01;68.70;96241.47;4984480;28;20089;-60
2023/04/14 05:21:21;;;;;;;0.50;0.50;;;;;;;11.14;68.05;96212.19;4982382;28;20058;-60
2023/04/14 05:23:48;;;;;;;0.50;0.50;;;;;;;11.56;67.39;96234.41;4984412;28;20050;-60
2023/04/14 05:26:15;;;;;;;0.50;0.50;;;;;;;11.85;66.04;96233.25;4984245;28;20049;-60
2023/04/14 05:28:45;;;;;;;0.60;0.60;;;;;;;12.02;65.03;96232.41;4982453;28;20256;-60
2023/04/14 05:31:11;;;;;;;0.55;0.55;;;;;;;11.92;64.76;96172.16;4984291;28;20125;-61
2023/04/14 05:33:38;;;;;;;0.60;0.60;;;;;;;12.30;63.44;96210.13;4979351;28;20070;-61
2023/04/14 05:36:06;;;;;;;0.60;0.60;;;;;;;12.39;62.66;96179.97;4964679;28;20063;-62
2023/04/14 05:38:37;;;;;;;0.60;0.60;;;;;;;12.77;61.54;96178.97;4963296;28;20126;-59
2023/04/14 05:41:03;;;;;;;0.60;0.60;;;;;;;12.48;60.52;96110.88;4965023;28;20970;-60
2023/04/14 05:43:30;;;;;;;0.60;0.60;;;;;;;13.48;60.08;96224.59;4964648;28;20149;-61
2023/04/14 05:45:57;;;;;;;0.60;0.60;;;;;;;13.53;59.13;96204.69;4964073;28;20481;-60
2023/04/14 05:48:26;;;;;;;0.60;0.60;;;;;;;13.91;58.29;96263.25;4966702;28;20046;-60
2023/04/14 05:50:53;;;;;;;0.70;0.70;;;;;;;13.89;58.38;96182.13;4968077;28;20061;-61
2023/04/14 05:53:19;;;;;;;0.70;0.70;;;;;;;13.70;59.60;96198.19;4982913;28;20109;-61
2023/04/14 05:55:47;;;;;;;0.70;0.70;;;;;;;13.69;60.16;96204.97;4967560;28;20588;-62
2023/04/14 05:58:14;;;;;;;0.60;0.60;;;;;;;13.51;61.44;96209.88;4968195;28;20145;-61
2023/04/14 06:00:40;;;;;;;0.60;0.60;;;;;;;12.91;61.14;96089.97;4967542;28;20476;-62
2023/04/14 06:03:07;;;;;;;0.60;0.60;;;;;;;12.80;65.10;96189.28;4968073;28;20530;-60
2023/04/14 06:05:34;;;;;;;0.60;0.60;;;;;;;12.23;66.85;96082.44;4967489;28;20070;-59
2023/04/14 06:08:01;;;;;;;0.60;0.60;;;;;;;13.48;61.93;96191.22;4967475;28;20461;-60
2023/04/14 06:10:27;;;;;;;0.60;0.60;;;;;;;12.62;62.82;96076.66;4966516;28;20496;-61
2023/04/14 06:12:54;;;;;;;0.60;0.60;;;;;;;12.95;64.29;96185.22;4984612;28;20062;-60
2023/04/14 06:15:21;;;;;;;0.60;0.60;;;;;;;12.81;63.66;96178.94;4985714;28;20155;-61
2023/04/14 06:17:47;;;;;;;0.52;0.52;;;;;;;12.51;64.31;96143.41;4986606;28;20140;-60
2023/04/14 06:20:14;;;;;;;0.60;0.60;;;;;;;12.49;66.66;96168.00;4987148;28;20050;-59
2023/04/14 06:22:42;;;;;;;0.60;0.60;;;;;;;12.34;66.96;96122.06;4987231;28;20366;-59
2023/04/14 06:25:09;;;;;;;0.60;0.60;;;;;;;12.50;66.32;96122.38;4986809;28;20121;-61
2023/04/14 06:27:36;;;;;;;0.60;0.60;;;;;;;12.50;67.18;96121.56;4985478;28;20058;-60
2023/04/14 06:30:04;;;;;;;0.60;0.60;;;;;;;12.39;63.87;95996.69;4985234;28;20089;-61
2023/04/14 06:32:31;;;;;;;0.60;0.60;;;;;;;13.69;63.75;96168.78;4984157;28;20061;-61
2023/04/14 06:34:58;;;;;;;0.60;0.60;;;;;;;12.83;62.34;96055.09;4986818;28;20082;-61
2023/04/14 06:37:25;;;;;;;0.60;0.60;;;;;;;13.85;61.86;96164.69;4986795;28;20069;-61
2023/04/14 06:39:52;;;;;;;0.60;0.60;;;;;;;13.81;60.55;96122.16;4984589;28;20579;-63
2023/04/14 06:42:18;;;;;;;0.60;0.60;;;;;;;14.61;59.11;96162.22;4986500;28;20070;-60
2023/04/14 06:44:45;;;;;;;0.60;0.60;;;;;;;14.01;60.01;96167.66;4969078;28;20514;-60
2023/04/14 06:47:17;;;;;;;0.65;0.65;;;;;;;13.81;61.17;96183.41;4966852;28;20137;-60
2023/04/14 06:49:43;;;;;;;0.60;0.60;;;;;;;14.10;60.41;96159.63;4965800;28;20133;-61
2023/04/14 06:52:10;;;;;;;0.60;0.60;;;;;;;14.74;58.64;96163.25;4968091;28;20055;-60
2023/04/14 06:54:36;;;;;;;0.60;0.60;;;;;;;15.06;57.84;96183.13;4967920;28;20066;-61
2023/04/14 06:57:03;;;;;;;0.60;0.60;;;;;;;14.66;58.51;96186.84;4966805;28;20105;-60
2023/04/14 06:59:30;;;;;;;0.60;0.60;;;;;;;14.81;58.26;96182.69;4966191;28;20058;-61
2023/04/14 07:01:57;;;;;;;0.70;0.70;;;;;;;14.51;57.86;96149.22;4967197;28;20141;-61
2023/04/14 07:04:24;;;;;;;0.65;0.65;;;;;;;14.16;59.86;96163.53;4977697;28;20058;-62
2023/04/14 07:06:51;;;;;;;0.60;0.60;;;;;;;14.05;61.06;96123.88;4986436;28;20050;-61
2023/04/14 07:09:19;;;;;;;0.68;0.68;;;;;;;13.66;59.06;96097.25;4984878;28;20100;-62
2023/04/14 07:11:47;;;;;;;0.70;0.70;;;;;;;14.56;58.79;96148.75;4984236;28;20066;-61
2023/04/14 07:14:14;;;;;;;0.68;0.68;;;;;;;14.82;57.98;96145.22;4973031;28;20050;-61
2023/04/14 07:16:40;;;;;;;0.70;0.70;;;;;;;15.34;55.86;96154.81;4966196;28;20515;-61
2023/04/14 07:19:07;;;;;;;0.70;0.70;;;;;;;15.26;56.53;96180.44;4965082;28;20509;-61
2023/04/14 07:21:36;;;;;;;0.70;0.70;;;;;;;12.31;56.34;95703.59;4964864;28;20063;-61
2023/04/14 07:24:04;;;;;;;0.70;0.70;;;;;;;14.50;58.46;96089.13;4965941;28;20090;-61
2023/04/14 07:26:31;;;;;;;0.60;0.60;;;;;;;14.78;58.29;96077.56;4965961;28;20502;-62
2023/04/14 07:28:57;;;;;;;0.63;0.63;;;;;;;15.50;56.55;96141.00;4964757;28;20124;-61
2023/04/14 07:31:24;;;;;;;0.70;0.70;;;;;;;15.23;58.37;96126.28;4966362;28;20414;-61
2023/04/14 07:33:51;;;;;;;0.70;0.70;;;;;;;15.27;57.53;96132.56;4966340;28;20050;-62
2023/04/14 07:36:18;;;;;;;0.70;0.70;;;;;;;15.10;60.09;96091.81;4964379;28;20565;-61
2023/04/14 07:38:45;;;;;;;0.60;0.60;;;;;;;14.92;58.34;96008.41;4965679;28;20062;-61
2023/04/14 07:41:12;;;;;;;0.70;0.70;;;;;;;15.88;58.47;96133.16;4965531;28;20353;-61
2023/04/14 07:43:39;;;;;;;0.70;0.70;;;;;;;16.41;56.81;96132.91;4963915;28;20149;-61
2023/04/14 07:46:06;;;;;;;0.70;0.70;;;;;;;16.80;55.24;96137.75;4962598;28;20156;-61
2023/04/14 07:48:35;;;;;;;0.80;0.80;;;;;;;16.92;53.30;96101.50;4962608;28;20050;-61
2023/04/14 07:51:03;;;;;;;0.70;0.70;;;;;;;17.48;52.57;96149.78;4961684;28;20519;-61
2023/04/14 07:53:32;;;;;;;0.80;0.80;;;;;;;17.42;52.08;96095.50;4964301;28;20078;-61
2023/04/14 07:55:59;;;;;;;0.70;0.70;;;;;;;17.79;51.65;96114.56;4963983;28;20308;-61
2023/04/14 07:58:25;;;;;;;0.80;0.80;;;;;;;18.17;51.08;96121.16;4964298;28;20538;-61
2023/04/14 08:00:54;;;;;;;0.77;0.77;;;;;;;18.01;50.62;96126.81;4962676;28;20058;-61
2023/04/14 08:03:21;;;;;;;0.80;0.80;;;;;;;17.32;50.50;96130.13;4963999;28;20494;-60
2023/04/14 08:05:48;;;;;;;0.70;0.70;;;;;;;17.03;52.69;96104.84;4963654;28;20142;-61
2023/04/14 08:08:15;;;;;;;0.70;0.70;;;;;;;16.98;53.78;96119.31;4962715;28;20046;-61
2023/04/14 08:10:41;;;;;;;0.80;0.80;;;;;;;17.03;54.07;96118.03;4969413;28;20478;-61
2023/04/14 08:13:08;;;;;;;0.70;0.70;;;;;;;16.36;54.45;96041.97;4993730;28;20065;-61
2023/04/14 08:15:35;;;;;;;0.70;0.70;;;;;;;16.29;58.55;96108.41;4984527;28;20058;-60
2023/04/14 08:18:02;;;;;;;0.70;0.70;;;;;;;16.23;57.82;96037.50;4984692;28;20112;-61
2023/04/14 08:20:29;;;;;;;0.70;0.70;;;;;;;15.86;59.29;96047.03;4984695;28;20571;-59
2023/04/14 08:22:56;;;;;;;0.70;0.70;;;;;;;16.63;58.43;96090.16;4984799;28;20062;-61
2023/04/14 08:25:22;;;;;;;0.70;0.70;;;;;;;16.78;58.94;96092.63;4981799;28;20050;-60
2023/04/14 08:27:49;;;;;;;0.80;0.80;;;;;;;17.58;56.15;96081.50;4965269;28;20090;-61
2023/04/14 08:30:16;;;;;;;0.80;0.80;;;;;;;18.19;53.24;96076.66;4965439;28;20050;-63
2023/04/14 08:32:43;;;;;;;0.70;0.70;;;;;;;17.90;53.32;96081.47;4963947;28;20053;-61
2023/04/14 08:35:10;;;;;;;0.80;0.80;;;;;;;17.85;52.88;96084.78;4965132;28;20117;-61
2023/04/14 08:37:59;;;;;;;0.80;0.80;;;;;;;17.88;53.73;96079.09;4977456;28;20046;-60
2023/04/14 08:40:43;;;;;;;0.80;0.80;;;;;;;18.01;52.88;96014.69;4966105;28;20315;-59
2023/04/14 08:43:10;;;;;;;0.80;0.80;;;;;;;18.77;51.87;96066.94;4966295;28;20402;-59
2023/04/14 08:45:40;;;;;;;0.82;0.82;;;;;;;18.64;52.89;96063.31;4963969;28;20050;-61
2023/04/14 08:48:09;;;;;;;0.80;0.80;;;;;;;18.05;54.38;96077.06;4964004;28;20062;-62
2023/04/14 08:50:42;;;;;;;0.80;0.80;;;;;;;17.63;56.22;96083.78;4964857;28;20137;-60
2023/04/14 08:53:10;;;;;;;0.90;0.90;;;;;;;18.01;55.11;96088.38;4965414;28;20509;-62
2023/04/14 08:55:42;;;;;;;0.80;0.80;;;;;;;17.68;56.10;96060.84;4965083;28;20106;-61
2023/04/14 08:58:11;;;;;;;0.80;0.80;;;;;;;17.62;57.30;96104.63;4963606;28;20466;-62
2023/04/14 09:00:38;;;;;;;0.77;0.77;;;;;;;17.49;58.79;96086.94;4965097;28;20059;-61
2023/04/14 09:03:06;;;;;;;0.70;0.70;;;;;;;17.07;60.49;96101.97;4963237;28;20050;-61
2023/04/14 09:05:35;;;;;;;0.80;0.80;;;;;;;17.38;59.92;96103.19;4964934;28;20047;-61
2023/04/14 09:08:03;;;;;;;0.70;0.70;;;;;;;17.44;59.73;96098.63;4979685;28;20057;-60
2023/04/14 09:10:30;;;;;;;0.70;0.70;;;;;;;18.01;58.12;96087.56;4964701;28;20114;-61
2023/04/14 09:12:57;;;;;;;0.80;0.80;;;;;;;18.84;56.16;96082.78;4976656;28;20059;-60
2023/04/14 09:15:27;;;;;;;0.90;0.90;;;;;;;19.40;54.34;96081.00;4982503;28;20125;-61
2023/04/14 09:17:55;;;;;;;1.00;1.00;;;;;;;18.97;53.90;96013.38;4983869;28;20054;-60
2023/04/14 09:20:22;;;;;;;0.85;0.85;;;;;;;18.54;56.33;96075.66;4751055;28;5001641;-60
2023/04/14 09:23:10;;;;;;;0.80;0.80;;;;;;;18.27;58.20;96072.44;5007617;28;20053;-61
2023/04/14 09:25:39;;;;;;;0.90;0.90;;;;;;;18.22;58.71;96081.38;5007053;28;20065;-60
2023/04/14 09:28:06;;;;;;;0.80;0.80;;;;;;;18.63;58.80;96078.59;5005947;28;20270;-60
2023/04/14 09:30:33;;;;;;;0.80;0.80;;;;;;;18.30;59.93;96082.75;5007565;28;20138;-61
2023/04/14 09:33:06;;;;;;;0.85;0.85;;;;;;;19.20;57.29;96072.81;5007279;28;20189;-60
2023/04/14 09:35:41;;;;;;;0.82;0.82;;;;;;;19.46;57.43;96085.59;5007352;28;20065;-62
2023/04/14 09:38:08;;;;;;;0.90;0.90;;;;;;;19.40;59.76;96084.59;5007629;28;20054;-61
2023/04/14 09:40:35;;;;;;;0.80;0.80;;;;;;;19.30;59.81;96052.03;5005635;28;20101;-60
2023/04/14 09:43:01;;;;;;;0.90;0.90;;;;;;;19.65;60.35;96080.97;5006129;28;20104;-62
2023/04/14 09:45:42;;;;;;;0.90;0.90;;;;;;;19.42;60.13;96011.91;5006986;28;20050;-62
2023/04/14 09:48:10;;;;;;;0.90;0.90;;;;;;;19.71;59.83;96064.31;5007041;28;20061;-60
2023/04/14 09:51:04;;;;;;;0.80;0.80;;;;;;;19.66;60.23;96059.28;5007226;28;20050;-60
2023/04/14 09:53:36;;;;;;;0.88;0.88;;;;;;;19.43;60.86;96052.81;5006695;28;20140;-62
2023/04/14 09:56:05;;;;;;;0.90;0.90;;;;;;;18.75;61.71;95968.41;5005213;28;20049;-61
2023/04/14 09:58:37;;;;;;;0.80;0.80;;;;;;;19.51;61.07;96048.53;5005509;28;20058;-61
2023/04/14 10:01:10;;;;;;;0.93;0.93;;;;;;;19.49;60.89;96045.38;5006930;28;20050;-61
2023/04/14 10:03:41;;;;;;;0.82;0.82;;;;;;;18.29;60.93;95850.50;5007027;28;20053;-62
2023/04/14 10:06:20;;;;;;;0.80;0.80;;;;;;;19.68;60.50;96051.94;5006997;28;20149;-63
2023/04/14 10:08:49;;;;;;;0.90;0.90;;;;;;;20.00;59.97;96050.84;5005886;28;20057;-62
2023/04/14 10:11:28;;;;;;;1.00;1.00;;;;;;;19.06;59.28;95935.69;5004902;28;20053;-61
2023/04/14 10:13:57;;;;;;;0.95;0.95;;;;;;;20.31;58.47;96043.31;5001792;28;20054;-60
2023/04/14 10:16:25;;;;;;;0.90;0.90;;;;;;;20.63;57.36;96042.88;4985413;28;20054;-60
2023/04/14 10:18:53;;;;;;;0.80;0.80;;;;;;;20.93;56.58;96042.09;5001587;28;20117;-62
2023/04/14 10:21:21;;;;;;;1.00;1.00;;;;;;;21.35;55.26;96048.88;4985532;28;20166;-61
2023/04/14 10:23:49;;;;;;;0.93;0.93;;;;;;;21.16;55.23;96035.97;4986832;28;20062;-62
2023/04/14 10:26:18;;;;;;;0.95;0.95;;;;;;;21.25;55.46;96046.47;4987051;28;20050;-61
2023/04/14 10:28:48;;;;;;;0.90;0.90;;;;;;;20.96;55.87;96050.44;4986828;28;20054;-61
2023/04/14 10:31:22;;;;;;;1.00;1.00;;;;;;;20.71;55.96;96027.28;4985919;28;20121;-61
2023/04/14 10:33:49;;;;;;;1.00;1.00;;;;;;;21.07;55.41;96033.13;4984932;28;20054;-61
2023/04/14 10:36:24;;;;;;;0.80;0.80;;;;;;;21.10;55.38;96051.13;4977868;28;20532;-62
2023/04/14 10:39:04;;;;;;;0.95;0.95;;;;;;;21.17;54.46;96036.75;4983983;28;20108;-62
2023/04/14 10:41:43;;;;;;;1.00;1.00;;;;;;;21.30;54.23;96034.59;5001495;28;20090;-61
2023/04/14 10:44:28;;;;;;;0.90;0.90;;;;;;;21.65;53.85;96028.28;4986688;28;20082;-63
2023/04/14 10:46:57;;;;;;;0.90;0.90;;;;;;;20.96;53.91;95970.81;4986833;28;20057;-61
2023/04/14 10:49:29;;;;;;;1.00;1.00;;;;;;;21.37;53.97;96012.56;5001329;28;20050;-60
2023/04/14 10:52:02;;;;;;;1.00;1.00;;;;;;;21.31;54.14;96020.06;4986822;28;20050;-61
2023/04/14 10:54:59;;;;;;;0.90;0.90;;;;;;;21.22;53.76;96016.44;4984903;28;20046;-60
2023/04/14 10:57:28;;;;;;;0.90;0.90;;;;;;;20.83;54.45;95967.31;4984635;28;20050;-61
2023/04/14 10:59:59;;;;;;;0.90;0.90;;;;;;;21.81;53.16;96025.22;4986207;28;20124;-61
2023/04/14 11:02:30;;;;;;;0.90;0.90;;;;;;;21.54;51.11;95965.94;4986253;28;20057;-61
2023/04/14 11:05:07;;;;;;;0.90;0.90;;;;;;;21.57;51.85;95976.28;4986427;28;20050;-61
2023/04/14 11:07:43;;;;;;;0.90;0.90;;;;;;;21.47;52.92;96025.44;5000544;28;20117;-64
2023/04/14 11:10:16;;;;;;;1.00;1.00;;;;;;;21.33;53.40;96020.38;4986039;28;20057;-63
2023/04/14 11:12:44;;;;;;;0.90;0.90;;;;;;;21.44;52.86;96032.00;4995327;28;20464;-62
2023/04/14 11:15:11;;;;;;;0.90;0.90;;;;;;;21.64;52.61;96025.94;5005579;28;20065;-61
2023/04/14 11:17:38;;;;;;;1.00;1.00;;;;;;;21.49;52.47;96008.84;5004150;28;20284;-61
2023/04/14 11:20:16;;;;;;;1.00;1.00;;;;;;;21.48;52.54;96015.72;5005201;28;20060;-61
2023/04/14 11:22:45;;;;;;;0.98;0.98;;;;;;;19.22;51.82;95621.06;5005509;28;20147;-61
2023/04/14 11:25:16;;;;;;;1.00;1.00;;;;;;;21.76;52.08;95994.03;4986212;28;20093;-60
2023/04/14 11:27:49;;;;;;;1.00;1.00;;;;;;;22.18;50.95;96004.22;4985875;28;20050;-61
2023/04/14 11:30:20;;;;;;;0.90;0.90;;;;;;;22.33;50.83;96002.31;4984079;28;20121;-61
2023/04/14 11:32:55;;;;;;;0.90;0.90;;;;;;;22.57;50.05;96002.47;4985886;28;20050;-61
2023/04/14 11:35:24;;;;;;;0.90;0.90;;;;;;;22.65;49.39;95947.22;4985389;28;20077;-62
2023/04/14 11:37:53;;;;;;;1.00;1.00;;;;;;;22.98;49.26;95992.44;4985531;28;20061;-61
2023/04/14 11:40:21;;;;;;;0.93;0.93;;;;;;;23.12;48.43;95986.09;4985273;28;20058;-61
2023/04/14 11:42:58;;;;;;;1.00;1.00;;;;;;;23.61;47.88;95978.78;4985973;28;20046;-60
2023/04/14 11:45:29;;;;;;;1.00;1.00;;;;;;;23.89;47.47;95966.00;4985409;28;20398;-61
2023/04/14 11:48:00;;;;;;;1.00;1.00;;;;;;;23.76;47.16;95948.50;4985622;28;20086;-61